KGAD/GAD METAR and TAF weather

Enter ICAO airport designator
Station Type Date Time Source
KGAD METAR 2019/10/23 20:56 UTC NOAA

KGAD 232056Z AUTO 08004KT 10SM CLR 21/02 A3016 RMK AO2 SLP216 T02060017 56013


Station Type Date Time Source
KGAD Decoded METAR 2019/10/23 20:56 UTC NOAA

Gadsden, Gadsden Municipal Airport, AL, United States (KGAD) 33-58N 086-05W
Oct 23, 2019 - 04:56 PM EDT / 2019.10.23 2056 UTC
Wind: from the E (080 degrees) at 5 MPH (4 KT):0
Visibility: 10 mile(s):0
Sky conditions: clear
Temperature: 69.1 F (20.6 C)
Dew Point: 35.1 F (1.7 C)
Relative Humidity: 28%
Pressure (altimeter): 30.16 in. Hg (1021 hPa)
Pressure tendency: 0.04 inches (1.3 hPa) lower than three hours ago
ob: KGAD 232056Z AUTO 08004KT 10SM CLR 21/02 A3016 RMK AO2 SLP216 T02060017 56013
cycle: 21

Station Type Date Time Source
KGAD TAF UTC NOAA

Error!

Example: see airport list